Language: 


Des rapports , des résumés tant et plus, au choix de chacun....


Données statistiques de la station
 
Quotidien Rapport Février 22, 2018 Unités:  les deux    Anglais   Métrique
« Précédent Jour
Suivant Jour »
Quotidien Hebdomadaire Mensuel Annuel Actuel
  Actuel: Haut: Bas: Moyen:
Température: -1.4 °F /  -18.6 °C TemperatureC °F /  -17.8 °C -1.4 °F /  -18.6 °C -0.6 °F /  -18.1 °C
Pt de rosée: -3.0 °F /  -19.4 °C DewpointC °F /  -17.8 °C -3.0 °F /  -19.4 °C -2.6 °F /  -19.2 °C
Humidité: 89 % Humidity % 88 % 87 %
Vitesse du vent: 9.7 mph /  15.6 km/h WindSpeedKMH mph /  0 km/h - 9.4 mph /  15.1 km/h
Rafales: 9.7 mph /  15.6 km/h WindSpeedGustKMH mph /  0 km/h - -
Vent:NNE - - NNE
Pression: 1020.9 in /  34567.7 hPa PressurehPa in /  0 hPa 1020.9 in /  34567.7 hPa -
Précipitation: 0.0 in /  0 mm      
Historical Graphs
 
 
Données statistiques pour Février 22, 2018
Heure Température Point de rosée Pression Vent Vitesse du vent Refales Humidité Pluie (taux horaire)
TemperatureC °F /  -17.8 °C DewpointC °F /  -17.8 °C PressurehPa in /  0 hPa Calm     Humidity % HourlyPrecipMM in /  0 mm
00:04 0.4 °F /  -17.6 °C -1.0 °F /  -18.3 °C 1022.9 in /  34635.4 hPa NE 12.6 mph /  20.3 km/h 13.0 mph /  20.9 km/h 88 % 0.0 in /  0 mm
00:09 0.4 °F /  -17.6 °C -1.0 °F /  -18.3 °C 1022.9 in /  34635.4 hPa NE 12.2 mph /  19.6 km/h 12.6 mph /  20.3 km/h 88 % 0.0 in /  0 mm
00:14 0.4 °F /  -17.6 °C -1.0 °F /  -18.3 °C 1022.9 in /  34635.4 hPa NE 9.0 mph /  14.5 km/h 12.6 mph /  20.3 km/h 88 % 0.0 in /  0 mm
00:19 0.3 °F /  -17.6 °C -1.0 °F /  -18.3 °C 1022.9 in /  34635.4 hPa NNE 13.0 mph /  20.9 km/h 13.0 mph /  20.9 km/h 88 % 0.0 in /  0 mm
00:24 0.3 °F /  -17.6 °C -1.0 °F /  -18.3 °C 1022.9 in /  34635.4 hPa NE 9.7 mph /  15.6 km/h 13.0 mph /  20.9 km/h 88 % 0.0 in /  0 mm
00:29 0.2 °F /  -17.7 °C -1.0 °F /  -18.3 °C 1022.9 in /  34635.4 hPa NNE 10.5 mph /  16.9 km/h 14.0 mph /  22.5 km/h 88 % 0.0 in /  0 mm
00:34 0.1 °F /  -17.7 °C -1.0 °F /  -18.3 °C 1022.9 in /  34635.4 hPa NNE 11.6 mph /  18.7 km/h 14.0 mph /  22.5 km/h 88 % 0.0 in /  0 mm
00:39 0.1 °F /  -17.7 °C -1.0 °F /  -18.3 °C 1022.9 in /  34635.4 hPa NNE 11.6 mph /  18.7 km/h 11.6 mph /  18.7 km/h 88 % 0.0 in /  0 mm
00:44 0.0 °F /  -17.8 °C -3.0 °F /  -19.4 °C 1022.9 in /  34635.4 hPa NNE 9.3 mph /  15 km/h 13.0 mph /  20.9 km/h 88 % 0.0 in /  0 mm
00:49 -0.1 °F /  -17.8 °C -3.0 °F /  -19.4 °C 1022.9 in /  34635.4 hPa NE 9.0 mph /  14.5 km/h 13.0 mph /  20.9 km/h 88 % 0.0 in /  0 mm
00:54 -0.1 °F /  -17.8 °C -3.0 °F /  -19.4 °C 1022.9 in /  34635.4 hPa NNE 10.1 mph /  16.3 km/h 12.6 mph /  20.3 km/h 88 % 0.0 in /  0 mm
00:59 -0.2 °F /  -17.9 °C -3.0 °F /  -19.4 °C 1022.9 in /  34635.4 hPa NNE 10.5 mph /  16.9 km/h 13.7 mph /  22 km/h 88 % 0.0 in /  0 mm
01:04 -0.2 °F /  -17.9 °C -3.0 °F /  -19.4 °C 1022.9 in /  34635.4 hPa NE 6.9 mph /  11.1 km/h 13.7 mph /  22 km/h 88 % 0.0 in /  0 mm
01:09 -0.3 °F /  -17.9 °C -3.0 °F /  -19.4 °C 1022.9 in /  34635.4 hPa NNE 12.6 mph /  20.3 km/h 13.0 mph /  20.9 km/h 89 % 0.0 in /  0 mm
01:14 -0.3 °F /  -17.9 °C -3.0 °F /  -19.4 °C 1022.9 in /  34635.4 hPa NNE 3.2 mph /  5.1 km/h 14.8 mph /  23.8 km/h 89 % 0.0 in /  0 mm
01:19 -0.3 °F /  -17.9 °C -3.0 °F /  -19.4 °C 1022.9 in /  34635.4 hPa NE 13.7 mph /  22 km/h 14.8 mph /  23.8 km/h 89 % 0.0 in /  0 mm
01:24 -0.3 °F /  -17.9 °C -3.0 °F /  -19.4 °C 1022.9 in /  34635.4 hPa NNE 9.3 mph /  15 km/h 13.7 mph /  22 km/h 89 % 0.0 in /  0 mm
01:29 -0.4 °F /  -18 °C -3.0 °F /  -19.4 °C 1022.9 in /  34635.4 hPa NNE 12.6 mph /  20.3 km/h 13.7 mph /  22 km/h 89 % 0.0 in /  0 mm
01:34 -0.4 °F /  -18 °C -3.0 °F /  -19.4 °C 1022.9 in /  34635.4 hPa NE 9.7 mph /  15.6 km/h 13.7 mph /  22 km/h 89 % 0.0 in /  0 mm
01:40 -0.4 °F /  -18 °C -3.0 °F /  -19.4 °C 1022.9 in /  34635.4 hPa NNE 13.0 mph /  20.9 km/h 13.7 mph /  22 km/h 89 % 0.0 in /  0 mm
01:45 -0.4 °F /  -18 °C -3.0 °F /  -19.4 °C 1021.9 in /  34601.5 hPa NE 9.3 mph /  15 km/h 13.0 mph /  20.9 km/h 89 % 0.0 in /  0 mm
01:50 -0.5 °F /  -18.1 °C -3.0 °F /  -19.4 °C 1021.9 in /  34601.5 hPa NE 6.9 mph /  11.1 km/h 13.0 mph /  20.9 km/h 89 % 0.0 in /  0 mm
01:55 -0.5 °F /  -18.1 °C -3.0 °F /  -19.4 °C 1021.9 in /  34601.5 hPa NNE 9.0 mph /  14.5 km/h 11.9 mph /  19.2 km/h 89 % 0.0 in /  0 mm
02:00 -0.5 °F /  -18.1 °C -3.0 °F /  -19.4 °C 1021.9 in /  34601.5 hPa NNE 9.0 mph /  14.5 km/h 9.0 mph /  14.5 km/h 89 % 0.0 in /  0 mm
02:05 -0.5 °F /  -18.1 °C -3.0 °F /  -19.4 °C 1021.9 in /  34601.5 hPa NNE 10.5 mph /  16.9 km/h 10.5 mph /  16.9 km/h 89 % 0.0 in /  0 mm
02:10 -0.6 °F /  -18.1 °C -3.0 °F /  -19.4 °C 1021.9 in /  34601.5 hPa NNE 8.7 mph /  14 km/h 10.5 mph /  16.9 km/h 89 % 0.0 in /  0 mm
02:15 -0.6 °F /  -18.1 °C -3.0 °F /  -19.4 °C 1021.9 in /  34601.5 hPa NNE 8.7 mph /  14 km/h 10.5 mph /  16.9 km/h 89 % 0.0 in /  0 mm
02:20 -0.7 °F /  -18.2 °C -3.0 °F /  -19.4 °C 1021.9 in /  34601.5 hPa NE 9.7 mph /  15.6 km/h 9.7 mph /  15.6 km/h 89 % 0.0 in /  0 mm
02:25 -0.7 °F /  -18.2 °C -3.0 °F /  -19.4 °C 1021.9 in /  34601.5 hPa NNE 11.9 mph /  19.2 km/h 11.9 mph /  19.2 km/h 89 % 0.0 in /  0 mm
02:30 -0.8 °F /  -18.2 °C -3.0 °F /  -19.4 °C 1021.9 in /  34601.5 hPa NE 6.9 mph /  11.1 km/h 11.9 mph /  19.2 km/h 89 % 0.0 in /  0 mm
02:35 -0.8 °F /  -18.2 °C -3.0 °F /  -19.4 °C 1021.9 in /  34601.5 hPa NE 6.9 mph /  11.1 km/h 11.9 mph /  19.2 km/h 89 % 0.0 in /  0 mm
02:40 -0.8 °F /  -18.2 °C -3.0 °F /  -19.4 °C 1021.9 in /  34601.5 hPa NE 6.9 mph /  11.1 km/h 6.9 mph /  11.1 km/h 89 % 0.0 in /  0 mm
02:45 -0.8 °F /  -18.2 °C -3.0 °F /  -19.4 °C 1021.9 in /  34601.5 hPa NE 6.9 mph /  11.1 km/h 6.9 mph /  11.1 km/h 89 % 0.0 in /  0 mm
02:50 -0.8 °F /  -18.2 °C -3.0 °F /  -19.4 °C 1021.9 in /  34601.5 hPa NE 6.9 mph /  11.1 km/h 6.9 mph /  11.1 km/h 89 % 0.0 in /  0 mm
02:55 -0.9 °F /  -18.3 °C -3.0 °F /  -19.4 °C 1021.9 in /  34601.5 hPa NNE 9.7 mph /  15.6 km/h 9.7 mph /  15.6 km/h 89 % 0.0 in /  0 mm
03:00 -0.9 °F /  -18.3 °C -3.0 °F /  -19.4 °C 1021.9 in /  34601.5 hPa NNE 9.7 mph /  15.6 km/h 9.7 mph /  15.6 km/h 89 % 0.0 in /  0 mm
03:05 -1.0 °F /  -18.3 °C -3.0 °F /  -19.4 °C 1021.9 in /  34601.5 hPa NNE 9.7 mph /  15.6 km/h 9.7 mph /  15.6 km/h 89 % 0.0 in /  0 mm
03:10 -1.0 °F /  -18.3 °C -3.0 °F /  -19.4 °C 1021.9 in /  34601.5 hPa NE 8.7 mph /  14 km/h 10.1 mph /  16.3 km/h 89 % 0.0 in /  0 mm
03:15 -1.0 °F /  -18.3 °C -3.0 °F /  -19.4 °C 1020.9 in /  34567.7 hPa NNE 9.7 mph /  15.6 km/h 10.1 mph /  16.3 km/h 89 % 0.0 in /  0 mm
03:20 -1.0 °F /  -18.3 °C -3.0 °F /  -19.4 °C 1020.9 in /  34567.7 hPa NE 9.7 mph /  15.6 km/h 9.7 mph /  15.6 km/h 89 % 0.0 in /  0 mm
03:25 -1.0 °F /  -18.3 °C -3.0 °F /  -19.4 °C 1020.9 in /  34567.7 hPa ENE 10.5 mph /  16.9 km/h 12.2 mph /  19.6 km/h 89 % 0.0 in /  0 mm
03:30 -1.0 °F /  -18.3 °C -3.0 °F /  -19.4 °C 1020.9 in /  34567.7 hPa NNE 10.1 mph /  16.3 km/h 12.2 mph /  19.6 km/h 89 % 0.0 in /  0 mm
03:35 -1.1 °F /  -18.4 °C -3.0 °F /  -19.4 °C 1020.9 in /  34567.7 hPa NNE 9.3 mph /  15 km/h 11.6 mph /  18.7 km/h 89 % 0.0 in /  0 mm
03:40 -1.1 °F /  -18.4 °C -3.0 °F /  -19.4 °C 1020.9 in /  34567.7 hPa NNE 9.3 mph /  15 km/h 10.1 mph /  16.3 km/h 89 % 0.0 in /  0 mm
03:45 -1.2 °F /  -18.4 °C -3.0 °F /  -19.4 °C 1020.9 in /  34567.7 hPa NNE 9.3 mph /  15 km/h 9.3 mph /  15 km/h 89 % 0.0 in /  0 mm
03:50 -1.2 °F /  -18.4 °C -3.0 °F /  -19.4 °C 1020.9 in /  34567.7 hPa NE 9.7 mph /  15.6 km/h 9.7 mph /  15.6 km/h 89 % 0.0 in /  0 mm
03:55 -1.3 °F /  -18.5 °C -3.0 °F /  -19.4 °C 1020.9 in /  34567.7 hPa NE 9.7 mph /  15.6 km/h 9.7 mph /  15.6 km/h 89 % 0.0 in /  0 mm
04:00 -1.3 °F /  -18.5 °C -3.0 °F /  -19.4 °C 1020.9 in /  34567.7 hPa NE 9.7 mph /  15.6 km/h 9.7 mph /  15.6 km/h 89 % 0.0 in /  0 mm
04:05 -1.3 °F /  -18.5 °C -3.0 °F /  -19.4 °C 1020.9 in /  34567.7 hPa NE 6.9 mph /  11.1 km/h 9.7 mph /  15.6 km/h 89 % 0.0 in /  0 mm
04:10 -1.3 °F /  -18.5 °C -3.0 °F /  -19.4 °C 1020.9 in /  34567.7 hPa NNE 7.9 mph /  12.7 km/h 7.9 mph /  12.7 km/h 89 % 0.0 in /  0 mm
04:15 -1.4 °F /  -18.6 °C -3.0 °F /  -19.4 °C 1020.9 in /  34567.7 hPa NNE 9.7 mph /  15.6 km/h 9.7 mph /  15.6 km/h 89 % 0.0 in /  0 mm
Le Gheer Warneton
Courtoisie de Weather Underground - 1.5 mb

Mise a jour : 22/02/2018 04:18:11
Généré par Cumulus 1.9.4 (1099)